BKDO2: Broken Bow Lake

Data processed at Wed May 22 2019 23:50


All information presented herein is the property of the government of the United States of America and may be revised or deleted at any time without prior notice.
Dissemination of this information without the expressed written consent of the Public Affairs Office, Tulsa District U.S. Army Corps of Engineers is strictly prohibited.
These data are gathered electronically and, as presented, have not undergone any form of quality control. These data are not guaranteed to be valid or correct.
Go to home page.
Go to station list.
Go to home page.

Upstream stations:

Downstream station:
Previous Day
Next Day
Current Day
    
SHEF ID:       BKDO2     Broken Bow Lake
STATION TYPE:  RESERVOIR
Flood Pool:  Bottom =   602.05, Top =   627.50

               PRECIP ELEVATION   STORAGE   TW-ELEV    INFLOW   RELEASE  AIR-TEMP  WIND-DIRWIND-SPEED REL-HUMID SOLAR-RAD   VOLTAGE  BAT-LOAD
                   in        ft     ac-ft        ft       cfs       cfs         F       deg       mph         %      W/m2      volt      volt
              Ccp-Rev   Ccp-Rev   Ccp-Rev   Ccp-Rev  Rev-Regi  Rev-Regi   Ccp-Rev   Ccp-Rev   Ccp-Rev   Ccp-Rev   Ccp-Rev   Ccp-Rev   Ccp-Rev
(US/Central)
05/22 00:00      0.00    608.08   1035592    401.74      3725       119     57.78    217.40      0.10     99.74      0.00     12.82     12.50
05/22 01:00      0.00    608.10   1035890    401.73      2643       119     57.31    201.70      0.10     99.86      0.00     12.80     12.48
05/22 02:00      0.00    608.11   1036039    401.72      3364       119     57.15    193.90      0.10     99.99      0.00     12.77     12.44
05/22 03:00      0.00    608.13   1036337    401.71      2998       119     57.16    181.50      0.30    100.02      0.00     12.74     12.42
05/22 04:00      0.00    608.15   1036635    401.70      3342       119     57.02    192.50      0.40    100.08      0.00     12.72     12.40
05/22 05:00      0.00    608.16   1036784    401.70      3337       119     59.63    147.60      0.40    100.24      0.00     12.71     12.37
05/22 06:00      0.00    608.19   1037231    401.70      3311       119     60.01    230.10      0.20    100.18      0.00     12.70     12.37
05/22 07:00      0.00    608.20   1037380    401.70      3633       119     61.34    230.30      0.50    100.32      0.00     12.70     12.36
05/22 08:00      0.01    608.22   1037678    401.70      3277       119     63.03    240.90      0.20    100.46      3.20     12.70     12.36
05/22 09:00      0.00    608.25   1038125    401.70      2906       119     64.99    205.00      1.00    100.58     38.50     12.81     12.36
05/22 10:00      0.00    608.25   1038125    401.70      3478       119     68.40    196.30      1.80    100.73    148.60     13.23     12.51
05/22 11:00      0.00    608.27   1038423    401.69      2760       119     71.06    213.60      1.70    100.77    122.60     13.28     12.84
05/22 12:00      0.00    608.29   1038721    403.64      2177      1566     73.72    196.60      1.60    100.43    240.10     13.83     12.83
05/22 13:00      0.00    608.27   1038423    403.41      4231      2850     78.82    184.30      2.80     91.73    470.10     13.59     12.99
05/22 14:00      0.00    608.26   1038274    404.34      3512      4436     82.35    198.00      3.40     78.23    545.40     13.48     13.19
05/22 15:00      0.00    608.29   1038721    405.41      2568      5889     84.36    198.60      5.20     69.52    590.30     14.04     13.12
05/22 16:00      0.00    608.24   1037976    404.21      2574      4021     85.51    193.30      4.80     65.21    599.40     13.79     13.41
05/22 17:00      0.00    608.22   1037678    405.32      3938      6553     85.50    186.40      4.00     64.17    506.20     13.59     13.36
05/22 18:00      0.00    608.19   1037231    405.48      1861      6500     85.44    194.60      3.00     63.99    352.60     13.33     13.19
05/22 19:00      0.00    608.21   1037529    405.43      1883      6447     84.40    196.90      2.70     64.89     71.50     13.05     12.91
05/22 20:00      0.00    608.20   1037380    401.68      2571       119     82.22    190.10      1.70     70.24     18.90     12.91     12.67
05/22 21:00      0.00    608.20   1037380    401.68      3260       119     78.93    205.30      1.40     79.61      0.00     12.90     12.57
05/22 22:00      0.00    608.22   1037678    401.67      2107       119     75.78    227.60      2.60     88.57      0.00     12.89     12.55
05/22 23:00      0.00    608.24   1037976    401.67      2802       119     74.37    233.50      2.80     91.63      0.00     12.87     12.53